Time;durP1;ratioP1;P1;durP2;ratioP2;P2;SDS_P1;SDS_P2;PMS_P1;PMS_P2;Temp;Humidity;BMP_temperature;BMP_pressure;BME280_temperature;BME280_humidity;BME280_pressure;Samples;Min_cycle;Max_cycle;Signal;HPM_P1;HPM_P2
2021/11/23 00:01:29;;;;;;;;;;;22.70;37.40;;;;;;491750;240;1697;-47
2021/11/23 00:03:30;;;;;;;;;;;22.70;37.40;;;;;;491510;240;1439;-47
2021/11/23 00:05:32;;;;;;;;;;;22.70;37.30;;;;;;491571;240;1415;-47
2021/11/23 00:07:33;;;;;;;;;;;22.70;37.30;;;;;;491867;240;1063;-47
2021/11/23 00:09:34;;;;;;;;;;;22.70;37.20;;;;;;491578;240;1250;-47
2021/11/23 00:11:36;;;;;;;;;;;22.70;37.30;;;;;;491460;240;1349;-47
2021/11/23 00:13:37;;;;;;;;;;;22.70;37.30;;;;;;491664;240;1013;-47
2021/11/23 00:15:39;;;;;;;;;;;22.80;37.30;;;;;;491472;240;1134;-47
2021/11/23 00:17:40;;;;;;;;;;;22.80;37.30;;;;;;491499;240;2188;-47
2021/11/23 00:19:42;;;;;;;;;;;22.80;37.30;;;;;;491735;240;1265;-47
2021/11/23 00:21:43;;;;;;;;;;;22.70;37.20;;;;;;491657;240;1184;-47
2021/11/23 00:23:44;;;;;;;;;;;22.80;37.30;;;;;;491595;240;1061;-47
2021/11/23 00:25:45;;;;;;;;;;;22.80;37.30;;;;;;491597;240;1466;-47
2021/11/23 00:27:47;;;;;;;;;;;22.80;37.30;;;;;;491526;240;1459;-47
2021/11/23 00:29:48;;;;;;;;;;;22.70;37.30;;;;;;491817;240;1053;-47
2021/11/23 00:31:50;;;;;;;;;;;22.70;37.50;;;;;;491444;240;1231;-46
2021/11/23 00:33:51;;;;;;;;;;;22.60;37.60;;;;;;491801;240;1207;-47
2021/11/23 00:35:52;;;;;;;;;;;22.30;37.90;;;;;;491577;240;1442;-47
2021/11/23 00:37:54;;;;;;;;;;;22.10;38.40;;;;;;491518;240;2120;-47
2021/11/23 00:39:55;;;;;;;;;;;22.00;38.70;;;;;;491556;240;1079;-47
2021/11/23 00:41:56;;;;;;;;;;;21.80;39.00;;;;;;491607;240;1316;-47
2021/11/23 00:43:57;;;;;;;;;;;21.70;39.20;;;;;;491536;240;1222;-47
2021/11/23 00:45:59;;;;;;;;;;;21.70;39.40;;;;;;491471;240;1022;-47
2021/11/23 00:48:00;;;;;;;;;;;21.60;39.50;;;;;;491469;240;1130;-47
2021/11/23 00:50:02;;;;;;;;;;;21.50;39.60;;;;;;491824;240;1139;-46
2021/11/23 00:52:03;;;;;;;;;;;21.50;39.70;;;;;;491538;240;1069;-47
2021/11/23 00:54:04;;;;;;;;;;;21.40;39.80;;;;;;491823;240;1053;-47
2021/11/23 00:56:05;;;;;;;;;;;21.40;39.90;;;;;;491989;240;1036;-47
2021/11/23 00:58:07;;;;;;;;;;;21.40;39.90;;;;;;491925;240;2196;-47
2021/11/23 01:00:08;;;;;;;;;;;21.30;40.00;;;;;;491969;240;1149;-47
2021/11/23 01:02:11;;;;;;;;;;;21.30;40.10;;;;;;491970;240;1206;-47
2021/11/23 01:04:11;;;;;;;;;;;21.30;40.10;;;;;;491639;240;2142;-46
2021/11/23 01:06:12;;;;;;;;;;;21.20;40.20;;;;;;491486;240;1148;-47
2021/11/23 01:08:14;;;;;;;;;;;21.20;40.30;;;;;;491945;240;1342;-46
2021/11/23 01:10:15;;;;;;;;;;;21.20;40.30;;;;;;491587;240;1008;-47
2021/11/23 01:12:16;;;;;;;;;;;21.20;40.30;;;;;;491539;240;1232;-47
2021/11/23 01:14:18;;;;;;;;;;;21.10;40.40;;;;;;491859;240;1220;-47
2021/11/23 01:16:19;;;;;;;;;;;21.10;40.30;;;;;;491959;240;1217;-47
2021/11/23 01:18:20;;;;;;;;;;;21.10;40.40;;;;;;492004;240;2183;-47
2021/11/23 01:20:23;;;;;;;;;;;21.10;40.40;;;;;;491604;240;1105;-47
2021/11/23 01:22:23;;;;;;;;;;;21.10;40.40;;;;;;491579;240;1496;-47
2021/11/23 01:24:24;;;;;;;;;;;21.10;40.50;;;;;;491518;240;1070;-47
2021/11/23 01:26:26;;;;;;;;;;;21.00;40.50;;;;;;491520;240;1192;-46
2021/11/23 01:28:28;;;;;;;;;;;21.00;40.50;;;;;;491556;240;1040;-47
2021/11/23 01:30:28;;;;;;;;;;;21.10;40.60;;;;;;491881;240;2169;-47
2021/11/23 01:32:30;;;;;;;;;;;21.00;40.50;;;;;;491683;240;1189;-47
2021/11/23 01:34:31;;;;;;;;;;;21.00;40.50;;;;;;491617;240;989;-47
2021/11/23 01:36:32;;;;;;;;;;;21.00;40.50;;;;;;491522;240;1146;-47
2021/11/23 01:38:34;;;;;;;;;;;20.90;40.70;;;;;;491935;240;2121;-47
2021/11/23 01:40:35;;;;;;;;;;;20.90;40.70;;;;;;492000;240;1087;-47
2021/11/23 01:42:36;;;;;;;;;;;20.90;40.70;;;;;;491534;240;1297;-47
2021/11/23 01:44:38;;;;;;;;;;;20.90;40.80;;;;;;492005;240;986;-47
2021/11/23 01:46:39;;;;;;;;;;;20.90;40.80;;;;;;491786;240;1432;-47
2021/11/23 01:48:41;;;;;;;;;;;20.90;40.70;;;;;;491728;240;1246;-47
2021/11/23 01:50:42;;;;;;;;;;;20.90;40.80;;;;;;491770;240;1287;-47
2021/11/23 01:52:44;;;;;;;;;;;20.80;40.70;;;;;;491534;240;1193;-47
2021/11/23 01:54:45;;;;;;;;;;;20.80;40.80;;;;;;491576;240;2172;-47
2021/11/23 01:56:46;;;;;;;;;;;20.80;40.80;;;;;;491539;240;1210;-47
2021/11/23 01:58:47;;;;;;;;;;;20.90;40.80;;;;;;491601;240;2180;-47
2021/11/23 02:00:49;;;;;;;;;;;20.80;40.70;;;;;;491607;240;1307;-47
2021/11/23 02:02:50;;;;;;;;;;;20.80;40.80;;;;;;491807;240;1181;-47
2021/11/23 02:04:51;;;;;;;;;;;20.80;40.80;;;;;;491766;240;1136;-47
2021/11/23 02:06:53;;;;;;;;;;;20.80;40.90;;;;;;491573;240;1235;-47
2021/11/23 02:08:54;;;;;;;;;;;20.80;40.80;;;;;;491721;240;1111;-47
2021/11/23 02:10:55;;;;;;;;;;;20.80;40.80;;;;;;491836;240;1239;-47
2021/11/23 02:12:57;;;;;;;;;;;20.70;40.80;;;;;;491686;240;1019;-47
2021/11/23 02:14:58;;;;;;;;;;;20.80;40.90;;;;;;491554;240;1051;-47
2021/11/23 02:17:00;;;;;;;;;;;20.80;40.90;;;;;;491545;240;1253;-46
2021/11/23 02:19:01;;;;;;;;;;;20.70;40.80;;;;;;491626;240;2403;-47
2021/11/23 02:21:02;;;;;;;;;;;20.70;40.90;;;;;;491461;240;1311;-47
2021/11/23 02:23:03;;;;;;;;;;;20.70;40.90;;;;;;491624;240;1068;-47
2021/11/23 02:25:05;;;;;;;;;;;20.80;40.90;;;;;;491588;240;1032;-47
2021/11/23 02:27:06;;;;;;;;;;;20.70;40.90;;;;;;491518;240;1406;-47
2021/11/23 02:29:07;;;;;;;;;;;20.70;40.90;;;;;;491805;240;1024;-47
2021/11/23 02:31:09;;;;;;;;;;;20.70;40.90;;;;;;491853;240;1104;-47
2021/11/23 02:33:10;;;;;;;;;;;20.70;40.90;;;;;;491534;240;1256;-46
2021/11/23 02:35:11;;;;;;;;;;;20.60;40.90;;;;;;491619;240;1104;-47
2021/11/23 02:37:13;;;;;;;;;;;20.70;40.90;;;;;;491604;240;1213;-47
2021/11/23 02:39:14;;;;;;;;;;;20.70;41.00;;;;;;491854;240;2121;-46
2021/11/23 02:41:15;;;;;;;;;;;20.70;40.90;;;;;;491941;240;1322;-47
2021/11/23 02:43:17;;;;;;;;;;;20.70;40.90;;;;;;491579;240;976;-47
2021/11/23 02:45:18;;;;;;;;;;;20.70;40.90;;;;;;491969;240;1129;-47
2021/11/23 02:47:19;;;;;;;;;;;20.70;40.90;;;;;;491548;240;1221;-47
2021/11/23 02:49:21;;;;;;;;;;;20.70;40.80;;;;;;491941;240;1111;-47
2021/11/23 02:51:22;;;;;;;;;;;20.70;40.80;;;;;;491550;240;1232;-47
2021/11/23 02:53:24;;;;;;;;;;;20.60;40.80;;;;;;491613;240;1177;-47
2021/11/23 02:55:25;;;;;;;;;;;20.60;40.90;;;;;;491584;240;1150;-47
2021/11/23 02:57:26;;;;;;;;;;;20.60;40.90;;;;;;491471;240;2021;-47
2021/11/23 02:59:28;;;;;;;;;;;20.60;40.90;;;;;;491839;240;2164;-47
2021/11/23 03:01:30;;;;;;;;;;;20.60;40.90;;;;;;491525;240;1166;-47
2021/11/23 03:03:31;;;;;;;;;;;20.60;40.90;;;;;;491465;240;1051;-47
2021/11/23 03:05:32;;;;;;;;;;;20.60;40.90;;;;;;491803;240;1116;-47
2021/11/23 03:07:34;;;;;;;;;;;20.60;40.90;;;;;;491406;240;1228;-47
2021/11/23 03:09:35;;;;;;;;;;;20.60;40.90;;;;;;491472;240;1080;-47
2021/11/23 03:11:36;;;;;;;;;;;20.60;40.90;;;;;;492014;240;1303;-47
2021/11/23 03:13:38;;;;;;;;;;;20.60;40.90;;;;;;491726;240;1204;-47
2021/11/23 03:15:39;;;;;;;;;;;20.60;40.90;;;;;;491918;240;1078;-47
2021/11/23 03:17:41;;;;;;;;;;;20.60;41.00;;;;;;491716;240;1236;-47
2021/11/23 03:19:42;;;;;;;;;;;20.60;41.10;;;;;;491782;240;2184;-46
2021/11/23 03:21:43;;;;;;;;;;;20.50;41.00;;;;;;491467;240;1507;-47
2021/11/23 03:23:44;;;;;;;;;;;20.60;41.00;;;;;;491536;240;1040;-46
2021/11/23 03:25:46;;;;;;;;;;;20.50;41.00;;;;;;491652;240;1206;-47
2021/11/23 03:27:47;;;;;;;;;;;20.60;41.10;;;;;;491734;240;1548;-47
2021/11/23 03:29:48;;;;;;;;;;;20.60;41.00;;;;;;492019;240;1036;-47
2021/11/23 03:31:50;;;;;;;;;;;20.60;41.00;;;;;;491500;240;1267;-47
2021/11/23 03:33:51;;;;;;;;;;;20.60;41.10;;;;;;491669;240;1080;-47
2021/11/23 03:35:52;;;;;;;;;;;20.60;41.10;;;;;;491926;240;1331;-47
2021/11/23 03:37:54;;;;;;;;;;;20.60;41.00;;;;;;491561;240;1202;-47
2021/11/23 03:39:55;;;;;;;;;;;20.60;41.00;;;;;;491521;240;2428;-46
2021/11/23 03:41:56;;;;;;;;;;;20.60;41.00;;;;;;491535;240;1157;-47
2021/11/23 03:43:58;;;;;;;;;;;20.50;41.00;;;;;;491812;240;1046;-47
2021/11/23 03:45:59;;;;;;;;;;;20.50;41.00;;;;;;491787;240;1272;-47
2021/11/23 03:48:00;;;;;;;;;;;20.50;41.00;;;;;;491565;240;1254;-47
2021/11/23 03:50:02;;;;;;;;;;;20.50;41.00;;;;;;491528;240;1291;-47
2021/11/23 03:52:03;;;;;;;;;;;20.50;41.00;;;;;;491547;240;2084;-47
2021/11/23 03:54:04;;;;;;;;;;;20.50;41.00;;;;;;491474;240;1144;-47
2021/11/23 03:56:06;;;;;;;;;;;20.50;41.00;;;;;;491433;240;1178;-47
2021/11/23 03:58:07;;;;;;;;;;;20.50;41.00;;;;;;491896;240;1307;-46
2021/11/23 04:00:08;;;;;;;;;;;20.50;41.00;;;;;;491500;240;2126;-47
2021/11/23 04:02:10;;;;;;;;;;;20.50;41.00;;;;;;491491;240;1179;-47
2021/11/23 04:04:11;;;;;;;;;;;20.50;41.00;;;;;;491622;240;1062;-47
2021/11/23 04:06:12;;;;;;;;;;;20.50;41.00;;;;;;491413;240;1209;-47
2021/11/23 04:08:14;;;;;;;;;;;20.40;41.00;;;;;;491538;240;1197;-47
2021/11/23 04:10:16;;;;;;;;;;;20.50;41.10;;;;;;491824;240;1330;-46
2021/11/23 04:12:17;;;;;;;;;;;20.40;41.10;;;;;;491521;240;1201;-47
2021/11/23 04:14:19;;;;;;;;;;;20.40;41.10;;;;;;491512;240;1115;-47
2021/11/23 04:16:21;;;;;;;;;;;20.50;41.10;;;;;;491452;240;1138;-47
2021/11/23 04:18:21;;;;;;;;;;;20.50;41.10;;;;;;491555;240;2134;-47
2021/11/23 04:20:23;;;;;;;;;;;20.50;41.00;;;;;;491941;240;2117;-47
2021/11/23 04:22:24;;;;;;;;;;;20.40;41.10;;;;;;491534;240;1282;-47
2021/11/23 04:24:26;;;;;;;;;;;20.40;41.10;;;;;;491697;240;982;-47
2021/11/23 04:26:27;;;;;;;;;;;20.50;41.10;;;;;;491979;240;1156;-47
2021/11/23 04:28:28;;;;;;;;;;;20.50;41.10;;;;;;491876;240;1084;-47
2021/11/23 04:30:30;;;;;;;;;;;20.50;41.10;;;;;;491980;240;1033;-46
2021/11/23 04:32:31;;;;;;;;;;;20.50;41.00;;;;;;491966;240;1137;-46
2021/11/23 04:34:32;;;;;;;;;;;20.40;41.00;;;;;;492024;240;1129;-47
2021/11/23 04:36:34;;;;;;;;;;;20.40;41.00;;;;;;491758;240;1228;-47
2021/11/23 04:38:35;;;;;;;;;;;20.50;41.10;;;;;;491550;240;1121;-46
2021/11/23 04:40:36;;;;;;;;;;;20.40;41.00;;;;;;491867;240;2187;-47
2021/11/23 04:42:38;;;;;;;;;;;20.50;41.00;;;;;;491877;240;1682;-47
2021/11/23 04:44:39;;;;;;;;;;;20.50;41.00;;;;;;491486;240;1332;-46
2021/11/23 04:46:40;;;;;;;;;;;20.40;41.00;;;;;;491423;240;2128;-46
2021/11/23 04:48:42;;;;;;;;;;;20.50;41.00;;;;;;491501;240;1060;-47
2021/11/23 04:50:43;;;;;;;;;;;20.40;41.00;;;;;;491791;240;1150;-47
2021/11/23 04:52:44;;;;;;;;;;;20.40;41.00;;;;;;491492;240;1221;-46
2021/11/23 04:54:46;;;;;;;;;;;20.40;41.10;;;;;;491371;240;1122;-47
2021/11/23 04:56:47;;;;;;;;;;;20.40;41.10;;;;;;491532;240;1382;-47
2021/11/23 04:58:48;;;;;;;;;;;20.40;41.20;;;;;;491490;240;1081;-46
2021/11/23 05:00:50;;;;;;;;;;;20.40;41.10;;;;;;491624;240;2102;-47
2021/11/23 05:02:51;;;;;;;;;;;20.40;41.00;;;;;;491749;240;1247;-47
2021/11/23 05:04:53;;;;;;;;;;;20.40;41.10;;;;;;491728;240;1065;-47
2021/11/23 05:06:54;;;;;;;;;;;20.30;41.20;;;;;;491766;240;1201;-47
2021/11/23 05:08:55;;;;;;;;;;;20.40;41.20;;;;;;490971;240;1187;-47
2021/11/23 05:10:56;;;;;;;;;;;20.40;41.10;;;;;;491906;240;1143;-47
2021/11/23 05:12:58;;;;;;;;;;;20.40;41.20;;;;;;491509;240;1349;-47
2021/11/23 05:14:59;;;;;;;;;;;20.30;41.10;;;;;;491506;240;1034;-47
2021/11/23 05:17:00;;;;;;;;;;;20.30;41.10;;;;;;491463;240;1361;-47
2021/11/23 05:19:02;;;;;;;;;;;20.40;41.20;;;;;;491597;240;1039;-47
2021/11/23 05:21:03;;;;;;;;;;;20.40;41.20;;;;;;491658;240;2124;-47
2021/11/23 05:23:04;;;;;;;;;;;20.30;41.10;;;;;;491657;240;1189;-47
2021/11/23 05:25:06;;;;;;;;;;;20.30;41.10;;;;;;491958;240;1019;-47
2021/11/23 05:27:07;;;;;;;;;;;20.30;41.10;;;;;;491410;240;1042;-47
2021/11/23 05:29:10;;;;;;;;;;;20.30;41.20;;;;;;491477;240;1081;-47
2021/11/23 05:31:10;;;;;;;;;;;20.30;41.20;;;;;;491842;240;1656;-46
2021/11/23 05:33:12;;;;;;;;;;;20.40;41.10;;;;;;491412;240;1356;-47
2021/11/23 05:35:13;;;;;;;;;;;20.30;41.10;;;;;;491368;240;1025;-47
2021/11/23 05:37:14;;;;;;;;;;;20.30;41.10;;;;;;491379;240;1035;-47
2021/11/23 05:39:16;;;;;;;;;;;20.40;41.10;;;;;;491370;240;1189;-47
2021/11/23 05:41:17;;;;;;;;;;;20.30;41.10;;;;;;491274;240;2192;-47
2021/11/23 05:43:18;;;;;;;;;;;20.30;41.20;;;;;;491465;240;1152;-46
2021/11/23 05:45:20;;;;;;;;;;;20.30;41.20;;;;;;491446;240;1018;-47
2021/11/23 05:47:21;;;;;;;;;;;20.40;41.20;;;;;;490844;240;1284;-46
2021/11/23 05:49:22;;;;;;;;;;;20.30;41.10;;;;;;491542;240;982;-46
2021/11/23 05:51:24;;;;;;;;;;;20.30;41.10;;;;;;491219;240;1319;-47
2021/11/23 05:53:25;;;;;;;;;;;20.30;41.10;;;;;;491271;240;1171;-46
2021/11/23 05:55:26;;;;;;;;;;;20.30;41.10;;;;;;491343;240;1087;-47
2021/11/23 05:57:28;;;;;;;;;;;20.30;41.10;;;;;;491251;240;1199;-47
2021/11/23 05:59:29;;;;;;;;;;;20.50;40.80;;;;;;491340;240;1056;-47
2021/11/23 06:01:30;;;;;;;;;;;20.70;40.30;;;;;;491305;240;2193;-47
2021/11/23 06:03:32;;;;;;;;;;;20.90;40.00;;;;;;491310;240;1093;-47
2021/11/23 06:05:33;;;;;;;;;;;21.10;39.70;;;;;;491552;240;1039;-47
2021/11/23 06:07:34;;;;;;;;;;;21.20;39.50;;;;;;491465;240;1214;-46
2021/11/23 06:09:36;;;;;;;;;;;21.20;39.30;;;;;;491220;240;1194;-47
2021/11/23 06:11:37;;;;;;;;;;;21.30;39.10;;;;;;491201;240;1491;-47
2021/11/23 06:13:38;;;;;;;;;;;21.40;39.00;;;;;;490672;240;1253;-47
2021/11/23 06:15:44;;;;;;;;;;;21.40;38.90;;;;;;491150;240;1051;-47
2021/11/23 06:17:41;;;;;;;;;;;21.50;38.70;;;;;;491107;240;2195;-47
2021/11/23 06:19:43;;;;;;;;;;;21.50;38.70;;;;;;491170;240;1119;-47
2021/11/23 06:21:44;;;;;;;;;;;21.60;38.70;;;;;;491146;240;2117;-47
2021/11/23 06:23:46;;;;;;;;;;;21.60;38.60;;;;;;491517;240;1191;-47
2021/11/23 06:25:47;;;;;;;;;;;21.70;38.50;;;;;;491216;240;1087;-47
2021/11/23 06:27:48;;;;;;;;;;;21.70;38.40;;;;;;491250;240;1129;-46
2021/11/23 06:29:50;;;;;;;;;;;21.70;38.40;;;;;;491204;240;1075;-46
2021/11/23 06:31:51;;;;;;;;;;;21.70;38.30;;;;;;490984;240;1330;-47
2021/11/23 06:33:54;;;;;;;;;;;21.80;38.30;;;;;;491042;240;1043;-47
2021/11/23 06:35:55;;;;;;;;;;;21.80;38.30;;;;;;491133;240;2223;-47
2021/11/23 06:37:56;;;;;;;;;;;21.80;38.20;;;;;;491106;240;1301;-47
2021/11/23 06:39:57;;;;;;;;;;;21.90;38.10;;;;;;491158;240;1167;-47
2021/11/23 06:41:59;;;;;;;;;;;21.90;38.10;;;;;;491052;240;2115;-47
2021/11/23 06:44:02;;;;;;;;;;;21.90;38.10;;;;;;491031;240;1015;-47
2021/11/23 06:46:02;;;;;;;;;;;21.90;38.10;;;;;;491169;240;1366;-46
2021/11/23 06:48:03;;;;;;;;;;;21.90;38.00;;;;;;491109;240;1121;-47
2021/11/23 06:50:05;;;;;;;;;;;22.00;38.00;;;;;;491222;240;1127;-47
2021/11/23 06:52:06;;;;;;;;;;;22.00;38.00;;;;;;490993;240;1216;-47
2021/11/23 06:54:07;;;;;;;;;;;22.00;37.90;;;;;;491019;240;1169;-47
2021/11/23 06:56:09;;;;;;;;;;;22.00;37.90;;;;;;491119;240;1192;-47
2021/11/23 06:58:10;;;;;;;;;;;22.10;37.90;;;;;;491044;240;1230;-47
2021/11/23 07:00:11;;;;;;;;;;;22.00;37.80;;;;;;491107;240;2114;-47
2021/11/23 07:02:13;;;;;;;;;;;22.10;37.80;;;;;;491141;240;1248;-47
2021/11/23 07:04:14;;;;;;;;;;;22.10;37.80;;;;;;491105;240;1124;-47
2021/11/23 07:06:15;;;;;;;;;;;22.10;37.80;;;;;;491218;240;1202;-47
2021/11/23 07:08:17;;;;;;;;;;;22.10;37.80;;;;;;491256;240;1037;-47
2021/11/23 07:10:18;;;;;;;;;;;22.10;37.70;;;;;;490991;240;1182;-47
2021/11/23 07:12:19;;;;;;;;;;;22.20;37.60;;;;;;490989;240;1511;-47
2021/11/23 07:14:21;;;;;;;;;;;22.20;37.50;;;;;;491687;240;1285;-47
2021/11/23 07:16:22;;;;;;;;;;;22.20;37.50;;;;;;491513;240;1092;-47
2021/11/23 07:18:23;;;;;;;;;;;22.30;37.50;;;;;;491675;240;1167;-47
2021/11/23 07:20:25;;;;;;;;;;;22.30;37.40;;;;;;491181;240;2189;-47
2021/11/23 07:22:26;;;;;;;;;;;22.30;37.40;;;;;;490898;240;1199;-47
2021/11/23 07:24:27;;;;;;;;;;;22.30;37.40;;;;;;490607;240;1914;-47
2021/11/23 07:26:30;;;;;;;;;;;22.30;37.30;;;;;;490862;240;1355;-47
2021/11/23 07:28:31;;;;;;;;;;;22.30;37.30;;;;;;491034;240;1943;-47
2021/11/23 07:30:32;;;;;;;;;;;22.30;37.30;;;;;;490984;240;1061;-47
2021/11/23 07:32:34;;;;;;;;;;;22.30;37.20;;;;;;490882;240;1262;-47
2021/11/23 07:34:35;;;;;;;;;;;22.30;37.20;;;;;;490927;240;2195;-47
2021/11/23 07:36:38;;;;;;;;;;;22.30;37.20;;;;;;490849;240;1225;-47
2021/11/23 07:38:38;;;;;;;;;;;22.40;37.20;;;;;;491484;240;1905;-47
2021/11/23 07:40:39;;;;;;;;;;;22.40;37.10;;;;;;490887;240;2207;-46
2021/11/23 07:42:41;;;;;;;;;;;22.40;37.10;;;;;;490943;240;1199;-47
2021/11/23 07:44:42;;;;;;;;;;;22.40;37.10;;;;;;490897;240;1068;-47
2021/11/23 07:46:43;;;;;;;;;;;22.40;37.00;;;;;;490670;240;1271;-47
2021/11/23 07:48:45;;;;;;;;;;;22.40;37.00;;;;;;490912;240;1216;-47
2021/11/23 07:50:46;;;;;;;;;;;22.50;37.00;;;;;;490780;240;2330;-47
2021/11/23 07:52:47;;;;;;;;;;;22.40;37.00;;;;;;490477;240;1387;-47
2021/11/23 07:54:49;;;;;;;;;;;22.50;37.00;;;;;;490881;240;1266;-47
2021/11/23 07:56:50;;;;;;;;;;;22.50;36.90;;;;;;490982;240;1260;-47
2021/11/23 07:58:51;;;;;;;;;;;22.50;36.90;;;;;;491591;240;1185;-47
2021/11/23 08:00:52;;;;;;;;;;;22.50;36.90;;;;;;491450;241;2188;-48
2021/11/23 08:02:54;;;;;;;;;;;22.50;36.80;;;;;;491439;240;1066;-47
2021/11/23 08:04:55;;;;;;;;;;;22.50;36.80;;;;;;491461;241;1090;-47
2021/11/23 08:06:57;;;;;;;;;;;22.50;36.80;;;;;;491113;240;1718;-47
2021/11/23 08:08:58;;;;;;;;;;;22.60;36.80;;;;;;491559;240;1052;-47
2021/11/23 08:11:00;;;;;;;;;;;22.60;36.80;;;;;;490842;240;1299;-47
2021/11/23 08:13:01;;;;;;;;;;;22.60;36.80;;;;;;490894;241;2802;-47
2021/11/23 08:15:02;;;;;;;;;;;22.60;36.80;;;;;;490872;241;1196;-47
2021/11/23 08:17:03;;;;;;;;;;;22.60;36.70;;;;;;490752;240;1206;-47
2021/11/23 08:19:05;;;;;;;;;;;22.60;36.70;;;;;;490815;240;1219;-47
2021/11/23 08:21:06;;;;;;;;;;;22.60;36.70;;;;;;490875;240;2207;-47
2021/11/23 08:23:08;;;;;;;;;;;22.60;36.70;;;;;;490883;240;1255;-47
2021/11/23 08:25:09;;;;;;;;;;;22.60;36.70;;;;;;490837;240;1227;-47
2021/11/23 08:27:10;;;;;;;;;;;22.60;36.70;;;;;;490147;240;1281;-47
2021/11/23 08:29:11;;;;;;;;;;;22.60;36.70;;;;;;490758;240;1187;-47
2021/11/23 08:31:13;;;;;;;;;;;22.60;36.60;;;;;;490827;240;1128;-47
2021/11/23 08:33:14;;;;;;;;;;;22.70;36.60;;;;;;490817;240;1093;-47
2021/11/23 08:35:16;;;;;;;;;;;22.70;36.60;;;;;;490815;240;1048;-47
2021/11/23 08:37:17;;;;;;;;;;;22.70;36.60;;;;;;490613;240;1074;-47
2021/11/23 08:39:18;;;;;;;;;;;22.70;36.60;;;;;;490575;240;1220;-48
2021/11/23 08:41:19;;;;;;;;;;;22.70;36.60;;;;;;490637;240;2207;-47
2021/11/23 08:43:21;;;;;;;;;;;22.70;36.60;;;;;;490779;240;1169;-47
2021/11/23 08:45:22;;;;;;;;;;;22.70;36.50;;;;;;490753;241;1186;-47
2021/11/23 08:47:24;;;;;;;;;;;22.70;36.50;;;;;;490612;241;1268;-47
2021/11/23 08:49:25;;;;;;;;;;;22.70;36.50;;;;;;490693;241;1062;-47
2021/11/23 08:51:30;;;;;;;;;;;22.70;36.50;;;;;;490670;240;1396;-47
2021/11/23 08:53:28;;;;;;;;;;;22.80;36.50;;;;;;490680;241;2058;-47
2021/11/23 08:55:29;;;;;;;;;;;22.80;36.40;;;;;;490649;241;1224;-46
2021/11/23 08:57:30;;;;;;;;;;;22.80;36.40;;;;;;490621;240;1284;-47
2021/11/23 08:59:33;;;;;;;;;;;22.80;36.40;;;;;;490466;240;1204;-48
2021/11/23 09:01:33;;;;;;;;;;;22.80;36.40;;;;;;490534;240;2129;-47
2021/11/23 09:03:36;;;;;;;;;;;22.80;36.40;;;;;;490462;241;1243;-47
2021/11/23 09:05:37;;;;;;;;;;;22.80;36.30;;;;;;490659;241;2059;-47
2021/11/23 09:07:38;;;;;;;;;;;22.80;36.40;;;;;;490612;240;1274;-47
2021/11/23 09:09:41;;;;;;;;;;;22.80;36.40;;;;;;490762;240;1057;-47
2021/11/23 09:11:41;;;;;;;;;;;22.80;36.30;;;;;;490638;240;2313;-47
2021/11/23 09:13:42;;;;;;;;;;;22.80;36.40;;;;;;490735;240;1093;-47
2021/11/23 09:15:43;;;;;;;;;;;22.80;36.30;;;;;;490749;240;1048;-47
2021/11/23 09:17:44;;;;;;;;;;;22.90;36.30;;;;;;490642;240;1286;-47
2021/11/23 09:19:46;;;;;;;;;;;22.80;36.30;;;;;;490729;241;1058;-47
2021/11/23 09:21:47;;;;;;;;;;;22.80;36.30;;;;;;490716;241;2208;-47
2021/11/23 09:23:48;;;;;;;;;;;22.80;36.20;;;;;;490927;241;1099;-47
2021/11/23 09:25:50;;;;;;;;;;;22.80;36.30;;;;;;490657;240;1293;-47
2021/11/23 09:27:51;;;;;;;;;;;22.90;36.30;;;;;;490654;240;1232;-47
2021/11/23 09:29:52;;;;;;;;;;;22.80;36.20;;;;;;490475;240;1246;-47
2021/11/23 09:31:54;;;;;;;;;;;22.90;36.30;;;;;;490653;240;1241;-47
2021/11/23 09:33:55;;;;;;;;;;;22.90;36.30;;;;;;490766;240;1090;-47
2021/11/23 09:35:56;;;;;;;;;;;22.90;36.20;;;;;;490638;240;1202;-47
2021/11/23 09:37:58;;;;;;;;;;;22.90;36.20;;;;;;490768;241;1160;-47
2021/11/23 09:39:59;;;;;;;;;;;22.80;36.20;;;;;;490718;240;1132;-47
2021/11/23 09:42:00;;;;;;;;;;;22.80;36.40;;;;;;490798;241;2204;-47
2021/11/23 09:44:02;;;;;;;;;;;22.70;36.50;;;;;;490904;241;1390;-47
2021/11/23 09:46:03;;;;;;;;;;;22.50;36.80;;;;;;490816;240;1336;-47
2021/11/23 09:48:04;;;;;;;;;;;22.30;37.20;;;;;;490973;241;1360;-47
2021/11/23 09:50:06;;;;;;;;;;;22.10;37.50;;;;;;490844;240;1079;-47
2021/11/23 09:52:07;;;;;;;;;;;21.90;37.80;;;;;;490881;238;1298;-47
2021/11/23 09:54:08;;;;;;;;;;;21.80;38.00;;;;;;490823;240;1206;-47
2021/11/23 09:56:10;;;;;;;;;;;21.70;38.20;;;;;;490763;240;1308;-47
2021/11/23 09:58:11;;;;;;;;;;;21.60;38.30;;;;;;490686;240;1148;-47
2021/11/23 10:00:13;;;;;;;;;;;21.60;38.40;;;;;;490680;240;1114;-47
2021/11/23 10:02:14;;;;;;;;;;;21.60;38.50;;;;;;490634;240;2200;-47
2021/11/23 10:04:15;;;;;;;;;;;21.50;38.60;;;;;;490553;240;1075;-46
2021/11/23 10:06:18;;;;;;;;;;;21.50;38.70;;;;;;490598;241;1111;-47
2021/11/23 10:08:18;;;;;;;;;;;21.40;38.70;;;;;;490701;240;2345;-47
2021/11/23 10:10:19;;;;;;;;;;;21.40;38.80;;;;;;490792;240;1133;-47
2021/11/23 10:12:21;;;;;;;;;;;21.40;38.80;;;;;;490553;240;1211;-47
2021/11/23 10:14:22;;;;;;;;;;;21.40;38.80;;;;;;490589;240;1352;-47
2021/11/23 10:16:24;;;;;;;;;;;21.30;38.90;;;;;;490745;240;1398;-47
2021/11/23 10:18:25;;;;;;;;;;;21.30;38.90;;;;;;490954;240;1094;-47
2021/11/23 10:20:26;;;;;;;;;;;21.30;39.00;;;;;;490864;240;1064;-46
2021/11/23 10:22:28;;;;;;;;;;;21.30;39.00;;;;;;490988;240;2249;-47
2021/11/23 10:24:29;;;;;;;;;;;21.30;39.00;;;;;;491459;241;1160;-46
2021/11/23 10:26:31;;;;;;;;;;;21.30;39.00;;;;;;490664;240;1226;-47
2021/11/23 10:28:32;;;;;;;;;;;21.20;39.00;;;;;;490743;240;1074;-46
2021/11/23 10:30:33;;;;;;;;;;;21.20;39.00;;;;;;490670;240;1219;-47
2021/11/23 10:32:35;;;;;;;;;;;21.20;39.00;;;;;;490782;241;1258;-46
2021/11/23 10:34:36;;;;;;;;;;;21.20;39.10;;;;;;490804;240;1086;-47
2021/11/23 10:36:37;;;;;;;;;;;21.20;39.10;;;;;;490509;240;1068;-47
2021/11/23 10:38:39;;;;;;;;;;;21.20;39.10;;;;;;490684;240;1216;-47
2021/11/23 10:40:40;;;;;;;;;;;21.20;39.10;;;;;;490627;240;1179;-47
2021/11/23 10:42:41;;;;;;;;;;;21.10;39.10;;;;;;490619;240;2244;-46
2021/11/23 10:44:43;;;;;;;;;;;21.10;39.10;;;;;;490619;240;1108;-47
2021/11/23 10:46:44;;;;;;;;;;;21.10;39.10;;;;;;490727;241;1225;-47
2021/11/23 10:48:45;;;;;;;;;;;21.20;39.10;;;;;;490680;240;1261;-47
2021/11/23 10:50:47;;;;;;;;;;;21.10;39.10;;;;;;490561;240;1062;-47
2021/11/23 10:52:48;;;;;;;;;;;21.10;39.20;;;;;;490303;240;1284;-47
2021/11/23 10:54:49;;;;;;;;;;;21.10;39.20;;;;;;490720;240;1073;-47
2021/11/23 10:56:51;;;;;;;;;;;21.10;39.20;;;;;;490755;240;1137;-47
2021/11/23 10:58:52;;;;;;;;;;;21.10;39.20;;;;;;490588;240;1348;-47
2021/11/23 11:00:53;;;;;;;;;;;21.10;39.20;;;;;;490680;240;1408;-47
2021/11/23 11:02:58;;;;;;;;;;;21.10;39.10;;;;;;490852;240;2196;-47
2021/11/23 11:04:56;;;;;;;;;;;21.10;39.20;;;;;;490832;240;1937;-46
2021/11/23 11:06:57;;;;;;;;;;;21.10;39.20;;;;;;490568;240;1274;-47
2021/11/23 11:08:59;;;;;;;;;;;21.00;39.20;;;;;;490539;240;1240;-47
2021/11/23 11:11:00;;;;;;;;;;;21.00;39.20;;;;;;490489;240;1235;-47
2021/11/23 11:13:01;;;;;;;;;;;21.00;39.20;;;;;;490523;240;1340;-47
2021/11/23 11:15:03;;;;;;;;;;;21.00;39.20;;;;;;490673;240;1342;-47
2021/11/23 11:17:04;;;;;;;;;;;21.00;39.30;;;;;;490804;240;1251;-47
2021/11/23 11:19:05;;;;;;;;;;;21.00;39.20;;;;;;490775;240;1262;-46
2021/11/23 11:21:07;;;;;;;;;;;20.90;39.20;;;;;;490891;240;1243;-47
2021/11/23 11:23:08;;;;;;;;;;;21.00;39.20;;;;;;490750;240;2188;-46
2021/11/23 11:25:13;;;;;;;;;;;21.00;39.20;;;;;;490771;240;1077;-46
2021/11/23 11:27:12;;;;;;;;;;;21.00;39.20;;;;;;490964;240;1904;-47
2021/11/23 11:29:13;;;;;;;;;;;20.90;39.30;;;;;;491048;240;1277;-47
2021/11/23 11:31:14;;;;;;;;;;;21.00;39.30;;;;;;491535;240;825;-46
2021/11/23 11:33:21;;;;;;;;;;;20.90;39.20;;;;;;490853;240;1655;-47
2021/11/23 11:35:17;;;;;;;;;;;21.00;39.20;;;;;;490943;240;2125;-47
2021/11/23 11:37:19;;;;;;;;;;;21.00;39.20;;;;;;490731;240;1309;-47
2021/11/23 11:39:20;;;;;;;;;;;20.90;39.30;;;;;;490645;240;1313;-47
2021/11/23 11:41:21;;;;;;;;;;;20.90;39.30;;;;;;490754;240;1270;-47
2021/11/23 11:43:22;;;;;;;;;;;20.90;39.30;;;;;;490831;240;2180;-47
2021/11/23 11:45:24;;;;;;;;;;;20.90;39.30;;;;;;490925;240;1131;-47
2021/11/23 11:47:25;;;;;;;;;;;20.90;39.20;;;;;;490728;240;1344;-47
2021/11/23 11:49:26;;;;;;;;;;;20.90;39.30;;;;;;490256;240;1298;-47
2021/11/23 11:51:29;;;;;;;;;;;20.90;39.30;;;;;;490892;240;1767;-47
2021/11/23 11:53:29;;;;;;;;;;;20.90;39.20;;;;;;490821;240;2005;-46
2021/11/23 11:55:31;;;;;;;;;;;20.90;39.20;;;;;;490855;240;1132;-46
2021/11/23 11:57:32;;;;;;;;;;;21.00;39.20;;;;;;490848;240;2424;-47